Time;durP1;ratioP1;P1;durP2;ratioP2;P2;SDS_P1;SDS_P2;PMS_P1;PMS_P2;Temp;Humidity;BMP_temperature;BMP_pressure;BME280_temperature;BME280_humidity;BME280_pressure;Samples;Min_cycle;Max_cycle;Signal;HPM_P1;HPM_P2
2021/01/12 00:00:18;;;;;;;24.23;10.68;;;;;;;-1.16;100.00;97361.22;5015699;28;20072;-78
2021/01/12 00:02:44;;;;;;;24.23;10.73;;;;;;;-1.12;100.00;97341.13;5014276;28;20048;-78
2021/01/12 00:05:11;;;;;;;25.65;10.98;;;;;;;-1.14;100.00;97359.16;4981502;28;20060;-78
2021/01/12 00:07:38;;;;;;;25.02;11.27;;;;;;;-1.08;100.00;97344.88;4995875;28;20045;-78
2021/01/12 00:10:06;;;;;;;24.23;11.05;;;;;;;-1.11;100.00;97321.47;4993247;28;20034;-77
2021/01/12 00:12:33;;;;;;;24.75;11.10;;;;;;;-1.04;100.00;97339.88;4994727;28;20054;-78
2021/01/12 00:15:00;;;;;;;26.67;11.30;;;;;;;-1.02;100.00;97325.28;5013176;28;20076;-77
2021/01/12 00:17:26;;;;;;;24.02;10.77;;;;;;;-0.94;100.00;97332.84;5013522;28;20492;-77
2021/01/12 00:19:53;;;;;;;22.42;10.55;;;;;;;-0.93;100.00;97309.72;5013489;28;20050;-77
2021/01/12 00:22:20;;;;;;;22.02;10.27;;;;;;;-0.78;100.00;97315.19;4995345;28;20069;-76
2021/01/12 00:24:48;;;;;;;24.83;11.10;;;;;;;-0.80;100.00;97301.38;5012700;28;20502;-77
2021/01/12 00:27:18;;;;;;;25.98;11.32;;;;;;;-0.87;100.00;97300.75;5013208;28;20042;-78
2021/01/12 00:29:44;;;;;;;26.75;11.35;;;;;;;-0.85;100.00;97299.44;4994972;28;20678;-79
2021/01/12 00:32:29;;;;;;;28.33;11.80;;;;;;;-0.90;100.00;97312.66;4994228;28;20049;-77
2021/01/12 00:34:56;;;;;;;26.98;11.57;;;;;;;-0.85;100.00;97314.59;5013611;28;20537;-78
2021/01/12 00:37:24;;;;;;;24.15;11.45;;;;;;;-0.81;100.00;97287.28;4997034;28;20045;-79
2021/01/12 00:39:51;;;;;;;24.58;10.68;;;;;;;-0.74;100.00;97273.78;5013908;28;20058;-79
2021/01/12 00:42:23;;;;;;;26.83;10.63;;;;;;;-0.72;100.00;97277.78;5014680;28;20054;-79
2021/01/12 00:44:50;;;;;;;24.40;10.93;;;;;;;-0.68;100.00;97270.94;5012260;28;20046;-77
2021/01/12 00:47:16;;;;;;;25.45;11.35;;;;;;;-0.65;100.00;97267.78;4993604;28;20133;-80
2021/01/12 00:49:43;;;;;;;28.60;12.48;;;;;;;-0.62;100.00;97261.16;5013014;28;20661;-78
2021/01/12 00:52:11;;;;;;;25.80;11.40;;;;;;;-0.63;100.00;97263.00;5013234;28;20052;-79
2021/01/12 00:54:37;;;;;;;28.60;11.75;;;;;;;-0.68;100.00;97265.63;5012627;28;20056;-78
2021/01/12 00:57:04;;;;;;;25.77;12.38;;;;;;;-0.64;100.00;97258.72;4995921;28;20046;-78
2021/01/12 00:59:30;;;;;;;24.05;11.20;;;;;;;-0.61;100.00;97230.84;5007321;28;20034;-77
2021/01/12 01:02:05;;;;;;;23.73;11.80;;;;;;;-0.64;100.00;97242.78;4990376;28;20042;-77
2021/01/12 01:04:32;;;;;;;27.02;11.60;;;;;;;-0.65;100.00;97225.25;4973701;28;20053;-79
2021/01/12 01:06:59;;;;;;;27.98;12.10;;;;;;;-0.64;100.00;97229.50;4992137;28;20050;-79
2021/01/12 01:09:26;;;;;;;27.75;12.02;;;;;;;-0.77;100.00;97218.47;4992109;28;20051;-77
2021/01/12 01:11:52;;;;;;;28.65;12.77;;;;;;;-0.68;100.00;97214.31;4992085;28;20200;-77
2021/01/12 01:14:19;;;;;;;24.23;11.38;;;;;;;-0.63;100.00;97231.09;4992591;28;20628;-77
2021/01/12 01:16:46;;;;;;;27.63;12.60;;;;;;;-0.53;100.00;97200.34;4974838;28;20046;-78
2021/01/12 01:19:13;;;;;;;27.42;12.25;;;;;;;-0.55;100.00;97205.91;4992378;28;20081;-77
2021/01/12 01:21:39;;;;;;;27.95;12.27;;;;;;;-0.53;100.00;97213.63;4974410;28;20116;-77
2021/01/12 01:24:09;;;;;;;29.42;12.65;;;;;;;-0.50;100.00;97199.81;4974491;28;20057;-77
2021/01/12 01:26:36;;;;;;;27.23;12.25;;;;;;;-0.46;100.00;97198.25;4975178;28;20042;-77
2021/01/12 01:29:03;;;;;;;31.52;12.68;;;;;;;-0.44;100.00;97194.28;4975846;28;20402;-78
2021/01/12 01:31:39;;;;;;;27.52;12.30;;;;;;;-0.42;100.00;97188.72;4991906;28;20047;-79
2021/01/12 01:34:06;;;;;;;26.45;12.23;;;;;;;-0.46;100.00;97153.84;4974668;28;20137;-78
2021/01/12 01:36:32;;;;;;;30.75;12.93;;;;;;;-0.39;100.00;97174.91;4992383;28;20046;-78
2021/01/12 01:38:59;;;;;;;25.60;11.63;;;;;;;-0.37;100.00;97165.63;4991513;28;20048;-78
2021/01/12 01:41:25;;;;;;;28.27;12.30;;;;;;;-0.33;100.00;97163.25;4992607;28;20474;-78
2021/01/12 01:43:51;;;;;;;27.70;12.80;;;;;;;-0.35;100.00;97162.69;4974584;28;20054;-78
2021/01/12 01:46:19;;;;;;;29.38;12.90;;;;;;;-0.31;100.00;97158.50;4974553;28;20046;-78
2021/01/12 01:48:47;;;;;;;30.17;13.15;;;;;;;-0.35;100.00;97147.56;4991340;28;20070;-78
2021/01/12 01:51:15;;;;;;;26.35;12.55;;;;;;;-0.30;100.00;97162.72;4992008;28;20050;-78
2021/01/12 01:53:42;;;;;;;27.48;11.85;;;;;;;-0.27;100.00;97159.56;4973764;28;20046;-77
2021/01/12 01:56:09;;;;;;;27.65;12.57;;;;;;;-0.36;100.00;97159.25;4991904;28;20514;-78
2021/01/12 01:58:42;;;;;;;28.23;13.02;;;;;;;-0.32;100.00;97148.91;4975019;28;20050;-78
2021/01/12 02:01:09;;;;;;;27.77;12.32;;;;;;;-0.32;100.00;97152.38;4975192;28;20053;-78
2021/01/12 02:03:49;;;;;;;27.98;11.57;;;;;;;-0.25;100.00;97149.47;4994143;28;20034;-78
2021/01/12 02:06:22;;;;;;;30.48;12.88;;;;;;;-0.24;100.00;97164.38;4991774;28;20058;-78
2021/01/12 02:09:07;;;;;;;24.75;11.65;;;;;;;-0.19;100.00;97149.25;4995802;28;20047;-77
2021/01/12 02:11:38;;;;;;;;;;;;;;;-0.10;100.00;97152.19;4995754;28;20498;-78
2021/01/12 02:14:05;;;;;;;26.00;11.55;;;;;;;-0.09;100.00;97137.84;4994681;28;20012;-79
2021/01/12 02:16:34;;;;;;;27.58;12.48;;;;;;;-0.16;100.00;97124.00;4995555;28;20057;-77
2021/01/12 02:24:08;;;;;;;;;;;;;;;;;;;;;
2021/01/12 02:47:53;;;;;;;;;;;;;;;;;;;;;
2021/01/12 02:56:42;;;;;;;;;;;;;;;;;;;;;
2021/01/12 03:09:43;;;;;;;;;;;;;;;;;;;;;
2021/01/12 03:13:45;;;;;;;23.65;10.10;;;;;;;0.47;100.00;96981.78;4782459;29;20086;-81
2021/01/12 03:21:39;;;;;;;;;;;;;;;;;;;;;
2021/01/12 04:00:49;;;;;;;28.52;12.98;;;;;;;0.35;100.00;96967.94;5009664;28;20050;-82
2021/01/12 04:03:15;;;;;;;29.95;14.48;;;;;;;0.24;100.00;96958.34;5010299;28;20078;-81
2021/01/12 04:05:42;;;;;;;30.80;14.32;;;;;;;0.21;100.00;96959.66;5008634;28;20533;-82
2021/01/12 04:08:11;;;;;;;29.95;14.00;;;;;;;0.22;100.00;96969.25;5002152;28;20073;-81
2021/01/12 04:10:38;;;;;;;30.80;14.50;;;;;;;0.19;100.00;96982.28;4983705;28;20066;-82
2021/01/12 04:13:05;;;;;;;35.53;16.13;;;;;;;0.11;100.00;96950.88;4998758;28;20046;-83
2021/01/12 04:15:32;;;;;;;34.58;16.30;;;;;;;0.13;100.00;96968.16;4983067;28;20046;-82
2021/01/12 04:17:59;;;;;;;37.22;16.23;;;;;;;0.09;100.00;96953.00;4988060;28;20054;-81
2021/01/12 04:20:25;;;;;;;33.58;15.00;;;;;;;0.13;100.00;96951.44;4981574;28;20039;-83
2021/01/12 04:22:52;;;;;;;31.70;14.55;;;;;;;0.10;100.00;96941.31;4980534;28;20057;-83
2021/01/12 04:25:20;;;;;;;32.90;14.77;;;;;;;0.15;100.00;96942.13;4979915;28;20042;-84
2021/01/12 04:27:47;;;;;;;29.70;14.23;;;;;;;0.22;100.00;96949.81;4996894;28;20094;-83
2021/01/12 04:30:13;;;;;;;27.23;13.98;;;;;;;0.21;100.00;96940.22;4946576;28;20055;-81
2021/01/12 04:32:44;;;;;;;31.13;14.27;;;;;;;0.22;100.00;96932.00;4995573;28;20038;-86
2021/01/12 04:35:10;;;;;;;29.83;13.82;;;;;;;0.20;100.00;96930.66;4963308;28;20047;-82
2021/01/12 04:37:36;;;;;;;30.48;13.73;;;;;;;0.21;100.00;96927.72;4963116;28;20489;-85
2021/01/12 04:40:05;;;;;;;31.95;13.90;;;;;;;0.20;100.00;96923.50;4995312;28;20038;-80
2021/01/12 04:42:32;;;;;;;30.77;13.93;;;;;;;0.22;100.00;96924.03;4994863;28;20125;-82
2021/01/12 04:45:00;;;;;;;29.08;13.82;;;;;;;0.20;100.00;96928.00;4995656;28;20048;-83
2021/01/12 04:47:26;;;;;;;28.70;14.20;;;;;;;0.21;100.00;96921.59;4987737;28;20047;-81
2021/01/12 04:49:54;;;;;;;30.00;13.50;;;;;;;0.20;100.00;96909.38;4961461;28;20080;-84
2021/01/12 04:52:21;;;;;;;25.70;12.55;;;;;;;0.25;100.00;96907.53;4959617;28;20538;-82
2021/01/12 04:54:53;;;;;;;27.05;13.13;;;;;;;0.26;100.00;96909.09;4944911;28;20061;-84
2021/01/12 04:57:22;;;;;;;26.67;12.18;;;;;;;0.17;100.00;96900.06;4943071;28;20058;-83
2021/01/12 04:59:48;;;;;;;29.65;14.07;;;;;;;0.21;100.00;96900.31;4958029;28;20490;-84
2021/01/12 05:02:21;;;;;;;37.08;14.02;;;;;;;0.20;100.00;96896.88;4957411;28;20046;-81
2021/01/12 05:04:49;;;;;;;27.33;13.00;;;;;;;0.16;100.00;96892.34;4958081;28;20050;-80
2021/01/12 05:07:17;;;;;;;28.90;13.18;;;;;;;0.16;100.00;96877.16;4960253;28;20510;-83
2021/01/12 05:09:44;;;;;;;23.90;11.68;;;;;;;0.08;100.00;96864.41;4961414;28;20110;-83
2021/01/12 05:12:25;;;;;;;29.92;13.73;;;;;;;0.07;100.00;96862.81;4977185;28;20497;-85
2021/01/12 05:14:53;;;;;;;37.00;14.10;;;;;;;0.00;100.00;96852.44;4959629;28;20047;-84
2021/01/12 05:17:20;;;;;;;26.52;12.60;;;;;;;-0.16;100.00;96842.88;4960202;28;20386;-84
2021/01/12 05:19:55;;;;;;;31.40;13.50;;;;;;;-0.20;100.00;96851.63;4979715;28;20094;-82
2021/01/12 05:22:23;;;;;;;28.02;13.70;;;;;;;-0.15;100.00;96860.41;4982757;28;20046;-84
2021/01/12 05:24:50;;;;;;;30.92;14.27;;;;;;;-0.15;100.00;96865.72;4998966;28;20046;-84
2021/01/12 05:27:16;;;;;;;28.75;12.55;;;;;;;-0.15;100.00;96844.47;4997692;28;20061;-83
2021/01/12 05:29:42;;;;;;;30.17;13.88;;;;;;;-0.20;100.00;96856.97;4980702;28;20046;-82
2021/01/12 05:32:10;;;;;;;30.88;13.52;;;;;;;-0.10;100.00;96859.63;4983502;28;20042;-82
2021/01/12 05:34:53;;;;;;;31.85;13.68;;;;;;;-0.15;100.00;96854.28;5004388;28;20062;-83
2021/01/12 05:37:21;;;;;;;30.15;13.82;;;;;;;-0.12;100.00;96862.56;4983618;28;20727;-83
2021/01/12 05:39:52;;;;;;;31.00;13.65;;;;;;;-0.13;100.00;96842.31;5000153;28;20038;-83
2021/01/12 05:42:19;;;;;;;27.48;12.55;;;;;;;-0.14;100.00;96839.94;5002131;28;20121;-83
2021/01/12 05:44:49;;;;;;;25.95;11.77;;;;;;;-0.10;100.00;96847.13;4985243;28;20517;-83
2021/01/12 05:47:15;;;;;;;30.05;12.60;;;;;;;-0.08;100.00;96844.97;4980537;28;20056;-83
2021/01/12 05:49:45;;;;;;;28.83;12.13;;;;;;;-0.11;100.00;96828.78;4970108;28;20042;-83
2021/01/12 05:52:13;;;;;;;25.55;12.10;;;;;;;-0.10;100.00;96814.41;4984974;28;20050;-85
2021/01/12 05:55:08;;;;;;;25.38;12.68;;;;;;;-0.11;100.00;96810.16;4985379;28;20564;-85
2021/01/12 05:57:47;;;;;;;28.25;11.65;;;;;;;-0.13;100.00;96799.00;4984843;28;20046;-85
2021/01/12 06:00:17;;;;;;;21.25;10.15;;;;;;;-0.03;100.00;96830.91;5000782;28;20068;-85
2021/01/12 06:02:46;;;;;;;25.70;11.85;;;;;;;-0.11;100.00;96802.19;5002141;28;20603;-86
2021/01/12 06:05:13;;;;;;;22.88;10.93;;;;;;;-0.21;100.00;96780.91;4984848;28;20518;-85
2021/01/12 06:07:42;;;;;;;22.52;11.23;;;;;;;-0.11;100.00;96795.00;4973262;28;20046;-83
2021/01/12 06:10:12;;;;;;;23.38;10.32;;;;;;;-0.01;100.00;96800.31;4968830;28;20053;-84
2021/01/12 06:12:46;;;;;;;20.38;9.13;;;;;;;-0.05;100.00;96791.25;4982837;28;20140;-81
2021/01/12 06:15:17;;;;;;;21.20;9.60;;;;;;;0.06;100.00;96797.38;4980736;28;20042;-82
2021/01/12 06:17:44;;;;;;;18.63;9.10;;;;;;;0.11;100.00;96805.34;4971105;28;20073;-81
2021/01/12 06:20:16;;;;;;;23.38;10.48;;;;;;;0.10;100.00;96795.78;4991253;28;20038;-81
2021/01/12 06:22:56;;;;;;;19.90;9.18;;;;;;;0.10;100.00;96782.47;4967195;28;20170;-83
2021/01/12 06:25:22;;;;;;;18.42;9.50;;;;;;;0.09;100.00;96780.88;4980114;28;20121;-84
2021/01/12 06:27:49;;;;;;;21.67;9.35;;;;;;;0.07;100.00;96793.66;4966336;28;20046;-82
2021/01/12 06:30:17;;;;;;;22.13;10.48;;;;;;;0.07;100.00;96787.53;4965715;28;20114;-82
2021/01/12 06:32:44;;;;;;;22.45;10.23;;;;;;;0.00;100.00;96782.50;4963601;28;20050;-82
2021/01/12 06:35:11;;;;;;;19.65;10.60;;;;;;;0.05;100.00;96784.34;4973640;28;20043;-86
2021/01/12 06:37:51;;;;;;;17.15;9.02;;;;;;;0.13;100.00;96791.78;4980352;28;20620;-85
2021/01/12 06:40:22;;;;;;;20.02;9.30;;;;;;;0.09;100.00;96772.09;4980104;28;20477;-81
2021/01/12 06:42:48;;;;;;;20.95;9.70;;;;;;;0.10;100.00;96782.47;4960795;28;20136;-82
2021/01/12 06:45:17;;;;;;;19.05;9.23;;;;;;;0.04;100.00;96756.94;4957302;28;20706;-82
2021/01/12 06:47:43;;;;;;;20.00;9.48;;;;;;;0.10;100.00;96774.50;4967647;28;20054;-81
2021/01/12 06:50:16;;;;;;;19.35;9.93;;;;;;;0.21;100.00;96772.59;4981413;28;20536;-82
2021/01/12 06:52:49;;;;;;;24.80;10.52;;;;;;;0.19;100.00;96774.72;4970193;28;20054;-82
2021/01/12 06:55:18;;;;;;;23.77;10.25;;;;;;;0.16;100.00;96772.59;4994521;28;20085;-81
2021/01/12 06:57:45;;;;;;;19.63;9.30;;;;;;;0.17;100.00;96763.56;4976933;28;20404;-82
2021/01/12 07:00:13;;;;;;;21.35;10.23;;;;;;;0.23;100.00;96767.81;4994033;28;20054;-82
2021/01/12 07:02:39;;;;;;;21.52;8.85;;;;;;;0.24;100.00;96770.19;4961304;28;20540;-82
2021/01/12 07:05:06;;;;;;;18.73;9.48;;;;;;;0.28;100.00;96767.81;4994326;28;20085;-83
2021/01/12 07:07:41;;;;;;;18.70;9.18;;;;;;;0.30;100.00;96760.34;4978331;28;20435;-84
2021/01/12 07:10:10;;;;;;;18.00;9.18;;;;;;;0.30;100.00;96752.34;4962200;28;20064;-85
2021/01/12 07:12:38;;;;;;;17.75;8.13;;;;;;;0.28;100.00;96749.16;4970387;28;20054;-85
2021/01/12 07:15:19;;;;;;;15.00;8.02;;;;;;;0.24;100.00;96738.25;4963885;28;20053;-83
2021/01/12 07:17:48;;;;;;;15.98;7.85;;;;;;;0.35;100.00;96745.16;4996012;28;20106;-82
2021/01/12 07:20:26;;;;;;;14.52;7.63;;;;;;;0.40;100.00;96728.34;4979124;28;20117;-79
2021/01/12 07:23:06;;;;;;;13.35;7.50;;;;;;;0.37;100.00;96731.56;4961626;28;20428;-84
2021/01/12 07:25:41;;;;;;;14.98;7.60;;;;;;;0.37;100.00;96737.69;4976154;28;20060;-81
2021/01/12 07:28:14;;;;;;;13.68;7.15;;;;;;;0.32;100.00;96739.56;4994057;28;20053;-85
2021/01/12 07:31:08;;;;;;;16.33;7.75;;;;;;;0.37;100.00;96748.34;4962926;28;20046;-83
2021/01/12 07:34:01;;;;;;;17.15;7.95;;;;;;;0.39;100.00;96732.88;4995983;28;20441;-84
2021/01/12 07:36:36;;;;;;;17.60;7.05;;;;;;;0.22;100.00;96705.81;4979525;28;20050;-81
2021/01/12 07:39:11;;;;;;;16.90;7.80;;;;;;;0.28;100.00;96714.56;4976243;28;20057;-81
2021/01/12 07:41:41;;;;;;;12.98;6.30;;;;;;;0.38;100.00;96723.31;4963567;28;20054;-84
2021/01/12 07:44:08;;;;;;;18.58;7.60;;;;;;;0.23;100.00;96707.41;4982348;28;20202;-84
2021/01/12 07:46:37;;;;;;;15.95;7.90;;;;;;;0.34;100.00;96735.56;5006975;28;20100;-83
2021/01/12 07:49:06;;;;;;;15.95;7.80;;;;;;;0.37;100.00;96726.22;4995823;28;20051;-83
2021/01/12 07:51:32;;;;;;;16.35;7.40;;;;;;;0.36;100.00;96725.44;4991888;28;20136;-81
2021/01/12 07:54:01;;;;;;;14.52;7.20;;;;;;;0.37;100.00;96724.38;4999180;28;20089;-83
2021/01/12 07:56:28;;;;;;;15.48;7.03;;;;;;;0.41;100.00;96719.31;4979113;28;20470;-81
2021/01/12 07:58:57;;;;;;;13.85;6.90;;;;;;;0.37;100.00;96696.97;4995884;28;20122;-83
2021/01/12 08:01:35;;;;;;;14.02;6.80;;;;;;;0.41;100.00;96704.13;4997192;28;20049;-82
2021/01/12 08:04:15;;;;;;;12.60;6.03;;;;;;;0.42;100.00;96716.38;4978827;28;20069;-83
2021/01/12 08:06:43;;;;;;;12.82;5.85;;;;;;;0.41;100.00;96698.78;4994416;28;20425;-81
2021/01/12 08:09:10;;;;;;;12.88;5.63;;;;;;;0.47;100.00;96705.69;4978357;28;20045;-83
2021/01/12 08:11:37;;;;;;;11.90;6.28;;;;;;;0.47;100.00;96702.22;4976979;28;20267;-80
2021/01/12 08:14:06;;;;;;;9.02;5.10;;;;;;;0.45;100.00;96685.75;4994210;28;20050;-83
2021/01/12 08:16:36;;;;;;;12.07;6.38;;;;;;;0.45;100.00;96694.53;4979951;28;20042;-83
2021/01/12 08:19:03;;;;;;;12.02;6.15;;;;;;;0.46;100.00;96677.50;4995246;23;20049;-79
2021/01/12 08:21:40;;;;;;;13.18;5.55;;;;;;;0.51;100.00;96676.69;5045661;28;20049;-79
2021/01/12 08:24:08;;;;;;;10.82;5.88;;;;;;;0.57;100.00;96710.16;5050381;28;20044;-79
2021/01/12 08:26:34;;;;;;;10.38;5.50;;;;;;;0.54;100.00;96700.88;5037427;28;20029;-79
2021/01/12 08:29:01;;;;;;;13.82;5.63;;;;;;;0.48;100.00;96669.22;5038334;28;20033;-80
2021/01/12 08:31:27;;;;;;;11.70;6.07;;;;;;;0.51;100.00;96682.81;5054617;28;20518;-79
2021/01/12 08:34:01;;;;;;;18.05;6.20;;;;;;;0.53;100.00;96685.19;5055374;28;20045;-79
2021/01/12 08:36:30;;;;;;;13.93;5.82;;;;;;;0.58;100.00;96674.50;5059161;28;20045;-81
2021/01/12 08:38:58;;;;;;;13.13;5.78;;;;;;;0.63;100.00;96677.94;5061982;28;20113;-79
2021/01/12 08:41:25;;;;;;;10.40;5.65;;;;;;;0.65;100.00;96664.34;5045360;28;20033;-81
2021/01/12 08:43:57;;;;;;;12.75;5.93;;;;;;;0.77;100.00;96666.69;5054042;28;20483;-78
2021/01/12 08:46:29;;;;;;;10.13;5.45;;;;;;;0.76;100.00;96663.22;5050144;28;20049;-79
2021/01/12 08:48:55;;;;;;;11.57;5.38;;;;;;;0.55;100.00;96632.44;5041798;28;20508;-80
2021/01/12 08:51:22;;;;;;;11.00;5.10;;;;;;;0.77;100.00;96653.34;5049306;28;20037;-80
2021/01/12 08:53:55;;;;;;;9.32;4.97;;;;;;;0.77;100.00;96640.84;5031892;28;20033;-80
2021/01/12 08:56:23;;;;;;;13.52;4.78;;;;;;;0.77;100.00;96651.50;5037588;28;20032;-78
2021/01/12 08:58:49;;;;;;;11.93;5.18;;;;;;;0.78;100.00;96645.06;5052908;28;20052;-81
2021/01/12 09:01:30;;;;;;;8.40;4.55;;;;;;;0.85;100.00;96656.22;5052262;28;20042;-78
2021/01/12 09:04:08;;;;;;;9.10;4.70;;;;;;;0.84;100.00;96636.00;5055195;28;20037;-78
2021/01/12 09:06:35;;;;;;;10.30;4.47;;;;;;;0.86;100.00;96649.03;5045185;28;20042;-78
2021/01/12 09:09:06;;;;;;;11.02;4.63;;;;;;;0.88;100.00;96658.31;5031888;28;20664;-79
2021/01/12 09:11:36;;;;;;;9.45;3.97;;;;;;;0.86;100.00;96641.84;5035521;28;20152;-75
2021/01/12 09:14:07;;;;;;;7.85;3.88;;;;;;;0.88;100.00;96636.25;5045550;28;20046;-79
2021/01/12 09:16:33;;;;;;;7.22;4.05;;;;;;;0.88;100.00;96639.69;5051281;28;20041;-80
2021/01/12 09:19:15;;;;;;;7.05;3.65;;;;;;;0.90;100.00;96621.56;5019299;28;20049;-78
2021/01/12 09:21:42;;;;;;;8.43;4.15;;;;;;;0.88;100.00;96630.91;5029347;28;20076;-81
2021/01/12 09:24:14;;;;;;;6.75;3.88;;;;;;;0.88;100.00;96631.69;5042587;28;20045;-79
2021/01/12 09:26:40;;;;;;;5.80;2.95;;;;;;;0.90;100.00;96632.22;5040042;28;20072;-80
2021/01/12 09:29:08;;;;;;;6.88;3.42;;;;;;;0.89;100.00;96624.50;5050688;28;20036;-79
2021/01/12 09:31:48;;;;;;;7.85;3.30;;;;;;;0.90;100.00;96626.91;5045305;28;20125;-78
2021/01/12 09:34:24;;;;;;;6.07;3.00;;;;;;;0.93;100.00;96646.88;5038203;28;20165;-78
2021/01/12 09:36:50;;;;;;;5.60;3.17;;;;;;;0.91;100.00;96633.00;5033126;28;20111;-78
2021/01/12 09:39:17;;;;;;;6.93;3.00;;;;;;;0.91;100.00;96627.69;5029988;28;20044;-77
2021/01/12 09:41:52;;;;;;;6.43;3.22;;;;;;;0.93;100.00;96626.31;5031963;28;20042;-75
2021/01/12 09:44:18;;;;;;;8.02;3.08;;;;;;;0.95;100.00;96621.53;5031581;28;20063;-78
2021/01/12 09:46:45;;;;;;;6.90;3.38;;;;;;;0.97;100.00;96647.88;5034445;28;20038;-78
2021/01/12 09:49:11;;;;;;;7.85;3.15;;;;;;;0.91;100.00;96631.13;5038979;28;20474;-78
2021/01/12 09:51:38;;;;;;;7.38;2.90;;;;;;;0.91;100.00;96625.81;5041654;28;20049;-77
2021/01/12 09:54:04;;;;;;;5.47;2.95;;;;;;;0.93;100.00;96626.31;5024401;28;20056;-78
2021/01/12 09:56:37;;;;;;;8.70;2.85;;;;;;;0.94;100.00;96619.94;5017238;28;20052;-82
2021/01/12 09:59:04;;;;;;;9.90;2.67;;;;;;;0.94;100.00;96622.59;5041723;28;20137;-78
2021/01/12 10:01:30;;;;;;;6.70;3.22;;;;;;;1.03;100.00;96604.94;5045827;28;20048;-80
2021/01/12 10:03:57;;;;;;;5.30;2.70;;;;;;;1.02;100.00;96607.88;5046414;28;20065;-79
2021/01/12 10:06:27;;;;;;;5.30;2.88;;;;;;;1.11;100.00;96612.31;5048930;28;20048;-77
2021/01/12 10:08:54;;;;;;;6.45;2.95;;;;;;;1.05;100.00;96604.66;5056154;28;20124;-78
2021/01/12 10:11:22;;;;;;;5.43;3.10;;;;;;;1.09;100.00;96601.16;5029574;28;20129;-78
2021/01/12 10:13:48;;;;;;;6.10;2.85;;;;;;;1.05;100.00;96592.16;5035468;28;20057;-78
2021/01/12 10:16:24;;;;;;;5.10;2.80;;;;;;;1.12;100.00;96592.59;5035034;28;20052;-78
2021/01/12 10:18:53;;;;;;;6.43;3.17;;;;;;;1.13;100.00;96585.41;5016784;28;20053;-78
2021/01/12 10:21:23;;;;;;;4.72;2.03;;;;;;;1.09;100.00;96592.34;5036934;28;20096;-79
2021/01/12 10:23:49;;;;;;;4.95;2.70;;;;;;;1.08;100.00;96580.94;5034163;28;20049;-78
2021/01/12 10:26:19;;;;;;;6.72;3.20;;;;;;;1.08;100.00;96596.91;5022948;28;20052;-79
2021/01/12 10:29:03;;;;;;;5.22;2.80;;;;;;;1.12;100.00;96589.13;5040412;28;20124;-79
2021/01/12 10:31:31;;;;;;;6.32;2.67;;;;;;;1.16;100.00;96593.63;5037222;28;20045;-80
2021/01/12 10:33:57;;;;;;;5.10;2.17;;;;;;;1.19;100.00;96578.94;5036382;28;20064;-78
2021/01/12 10:36:29;;;;;;;4.85;2.20;;;;;;;1.18;100.00;96575.50;5037081;28;20095;-79
2021/01/12 10:38:57;;;;;;;5.28;2.50;;;;;;;1.15;100.00;96560.06;5035202;28;20037;-78
2021/01/12 10:41:24;;;;;;;3.88;2.35;;;;;;;1.19;100.00;96558.41;5019101;28;20048;-79
2021/01/12 10:43:55;;;;;;;5.03;2.60;;;;;;;1.19;100.00;96561.09;5035755;28;20041;-79
2021/01/12 10:46:21;;;;;;;3.50;2.13;;;;;;;1.22;100.00;96565.84;5019101;28;20042;-78
2021/01/12 10:48:49;;;;;;;7.68;2.35;;;;;;;1.24;100.00;96550.38;5039180;28;20496;-79
2021/01/12 10:51:19;;;;;;;5.00;2.40;;;;;;;1.24;100.00;96542.38;5025662;28;20041;-77
2021/01/12 10:53:46;;;;;;;5.18;2.17;;;;;;;1.29;100.00;96556.75;5028194;28;20033;-79
2021/01/12 10:56:16;;;;;;;11.15;2.50;;;;;;;1.32;100.00;96553.53;5045369;28;20049;-79
2021/01/12 10:58:42;;;;;;;5.43;2.30;;;;;;;1.27;100.00;96531.16;5039007;28;20037;-80
2021/01/12 11:01:10;;;;;;;5.68;2.03;;;;;;;1.26;100.00;96540.22;5045269;28;20039;-78
2021/01/12 11:03:38;;;;;;;4.32;1.85;;;;;;;1.35;100.00;96539.59;5019741;28;20045;-79
2021/01/12 11:06:04;;;;;;;5.78;1.90;;;;;;;1.36;100.00;96551.88;5034914;28;20045;-80
2021/01/12 11:08:31;;;;;;;3.33;1.90;;;;;;;1.40;100.00;96544.88;5034580;28;20038;-83
2021/01/12 11:10:58;;;;;;;4.07;2.25;;;;;;;1.42;100.00;96542.75;5034955;28;20511;-77
2021/01/12 11:13:25;;;;;;;4.60;2.10;;;;;;;1.44;100.00;96513.94;5035055;28;20072;-78
2021/01/12 11:15:56;;;;;;;3.33;1.63;;;;;;;1.49;100.00;96521.88;5035690;28;20046;-81
2021/01/12 11:18:22;;;;;;;4.13;2.05;;;;;;;1.48;100.00;96505.06;5032622;28;20045;-78
2021/01/12 11:20:48;;;;;;;3.80;2.00;;;;;;;1.46;100.00;96517.09;5015532;28;20042;-81
2021/01/12 11:23:16;;;;;;;5.82;1.75;;;;;;;1.47;100.00;96508.03;5034223;28;20072;-81
2021/01/12 11:25:43;;;;;;;5.38;1.65;;;;;;;1.47;100.00;96511.47;5002301;28;20041;-82
2021/01/12 11:28:09;;;;;;;2.92;1.50;;;;;;;1.48;100.00;96504.28;5020194;28;20566;-82
2021/01/12 11:30:35;;;;;;;3.40;1.70;;;;;;;1.44;100.00;96487.28;5038125;28;20116;-82
2021/01/12 11:33:06;;;;;;;3.28;1.70;;;;;;;1.55;100.00;96486.06;5038056;28;20049;-82
2021/01/12 11:35:33;;;;;;;3.35;1.70;;;;;;;1.60;100.00;96481.44;5040172;28;20152;-80
2021/01/12 11:37:59;;;;;;;2.88;1.30;;;;;;;1.62;100.00;96489.19;5022119;28;20076;-79
2021/01/12 11:40:25;;;;;;;7.50;1.60;;;;;;;1.75;100.00;96486.63;5041745;28;20140;-81
2021/01/12 11:42:52;;;;;;;5.80;1.60;;;;;;;1.66;100.00;96464.31;5026399;28;20080;-80
2021/01/12 11:45:18;;;;;;;3.45;1.40;;;;;;;1.85;100.00;96475.00;5045087;28;20063;-80
2021/01/12 11:47:45;;;;;;;2.58;1.10;;;;;;;1.86;100.00;96469.38;5043402;28;20049;-80
2021/01/12 11:50:15;;;;;;;2.42;1.00;;;;;;;1.90;100.00;96469.59;5040222;28;20046;-79
2021/01/12 11:52:43;;;;;;;3.72;1.20;;;;;;;1.88;100.00;96453.09;5022562;28;20055;-78
2021/01/12 11:55:12;;;;;;;1.65;0.93;;;;;;;1.87;100.00;96467.50;5038697;28;20053;-77
2021/01/12 11:57:38;;;;;;;1.92;0.98;;;;;;;1.94;100.00;96454.59;5015224;28;20104;-78
2021/01/12 12:00:09;;;;;;;2.75;1.10;;;;;;;1.88;100.00;96432.53;5028062;28;20130;-77
2021/01/12 12:02:36;;;;;;;2.33;1.20;;;;;;;1.95;100.00;96440.19;5031910;28;20056;-77
2021/01/12 12:05:02;;;;;;;5.78;1.27;;;;;;;1.91;100.00;96419.72;5019080;28;20057;-78
2021/01/12 12:07:34;;;;;;;1.38;0.98;;;;;;;1.94;100.00;96438.59;5036173;28;20038;-77
2021/01/12 12:10:01;;;;;;;3.10;0.90;;;;;;;1.88;100.00;96421.09;5027828;28;20050;-77
2021/01/12 12:12:29;;;;;;;1.65;0.82;;;;;;;1.97;100.00;96426.53;5034460;28;20049;-75
2021/01/12 12:14:55;;;;;;;2.25;1.10;;;;;;;1.95;100.00;96416.16;5034326;28;20030;-75
2021/01/12 12:17:21;;;;;;;2.47;1.23;;;;;;;1.90;100.00;96410.91;5032752;28;20038;-76
2021/01/12 12:19:47;;;;;;;2.45;0.90;;;;;;;1.91;100.00;96396.47;5003013;28;20108;-76
2021/01/12 12:22:15;;;;;;;1.60;0.70;;;;;;;1.88;100.00;96400.50;5023561;28;20540;-76
2021/01/12 12:24:41;;;;;;;1.90;0.77;;;;;;;1.89;100.00;96406.63;4999242;28;20133;-77
2021/01/12 12:27:08;;;;;;;4.03;0.90;;;;;;;1.86;100.00;96405.34;5014733;28;20044;-78
2021/01/12 12:29:34;;;;;;;3.22;0.80;;;;;;;1.86;100.00;96404.53;5033353;28;20129;-79
2021/01/12 12:32:04;;;;;;;2.35;1.20;;;;;;;1.84;100.00;96415.53;5042399;28;20051;-78
2021/01/12 12:34:31;;;;;;;1.20;0.77;;;;;;;1.85;100.00;96418.97;5040345;28;20049;-77
2021/01/12 12:36:57;;;;;;;2.13;0.90;;;;;;;1.80;100.00;96409.19;5037022;28;20045;-78
2021/01/12 12:39:23;;;;;;;4.05;0.90;;;;;;;1.70;100.00;96416.53;5018596;28;20457;-82
2021/01/12 12:41:50;;;;;;;3.65;0.70;;;;;;;1.71;100.00;96416.22;5031402;28;20048;-77
2021/01/12 12:44:20;;;;;;;1.35;0.75;;;;;;;1.74;100.00;96406.88;5036573;28;20045;-75
2021/01/12 12:46:46;;;;;;;1.70;0.93;;;;;;;1.65;100.00;96400.59;5012856;28;20049;-76
2021/01/12 12:49:15;;;;;;;2.10;0.90;;;;;;;1.62;100.00;96409.97;5043252;28;20051;-76
2021/01/12 12:51:42;;;;;;;1.55;0.80;;;;;;;1.58;100.00;96394.81;5023692;28;20049;-77
2021/01/12 12:54:08;;;;;;;1.30;0.60;;;;;;;1.57;100.00;96410.03;5031588;28;20216;-78
2021/01/12 12:56:35;;;;;;;2.25;0.90;;;;;;;1.53;100.00;96418.88;5016518;28;20488;-78
2021/01/12 12:59:01;;;;;;;3.38;0.80;;;;;;;1.55;100.00;96411.41;5034630;28;20045;-78
2021/01/12 13:01:28;;;;;;;1.42;0.77;;;;;;;1.57;100.00;96398.59;5033549;28;20048;-77
2021/01/12 13:03:58;;;;;;;1.67;0.80;;;;;;;1.64;100.00;96407.81;5032896;28;20052;-79